Latest Weather Observations for Lord Howe Island Windy Point

IDN60801

Issued at 6:35 pm EDT Saturday 1 November 2014 (issued every 30 minutes, with the page automatically refreshed every 10 minutes)

About weather observations | Map of weather stations | Latest weather observations for NSW | Other Formats
Station Details ID: 200715 Name: LORD HOWE ISLAND WINDY POINT Lat: -31.54 Lon: 159.07 Height: 4.0 m
Data from the previous 72 hours. | See also: Recent months for locations in New South Wales
Date/Time
EDT
Temp
°C
App
Temp
°C
Dew
Point
Rel
Hum
%
Delta-T
°C
Wind Press
QNH
hPa
Press
MSL
hPa
Rain
since 9 am
mm
Dir
 
Spd
km/h
Gust
km/h
Spd
kts
Gust
kts
01/06:30pm - - - - - NNE 15 28 8 15 - - -
01/06:00pm - - - - - NNE 17 33 9 18 - - -
01/05:30pm - - - - - NE 15 33 8 18 - - -
01/05:00pm - - - - - NE 11 19 6 10 - - -
01/04:30pm - - - - - N 15 32 8 17 - - -
01/04:00pm - - - - - N 13 26 7 14 - - -
01/03:30pm - - - - - NNW 13 20 7 11 - - -
01/03:00pm - - - - - NW 13 26 7 14 - - -
01/02:30pm - - - - - NW 13 24 7 13 - - -
01/02:00pm - - - - - WNW 15 26 8 14 - - -
01/01:30pm - - - - - NNE 13 28 7 15 - - -
01/01:00pm - - - - - NNE 13 26 7 14 - - -
01/12:30pm - - - - - NNE 15 26 8 14 - - -
01/12:00pm - - - - - N 13 32 7 17 - - -
01/11:30am - - - - - NNE 13 24 7 13 - - -
01/11:00am - - - - - NNE 13 26 7 14 - - -
01/10:30am - - - - - N 13 32 7 17 - - -
01/10:00am - - - - - N 13 22 7 12 - - -
01/09:30am - - - - - NNW 9 20 5 11 - - -
01/09:00am - - - - - NE 13 28 7 15 - - -
01/08:30am - - - - - NW 11 24 6 13 - - -
01/08:00am - - - - - NNW 17 26 9 14 - - -
01/07:30am - - - - - NW 11 26 6 14 - - -
01/07:00am - - - - - NW 11 26 6 14 - - -
01/06:30am - - - - - NW 13 24 7 13 - - -
01/06:00am - - - - - NW 9 19 5 10 - - -
01/05:30am - - - - - NNW 11 20 6 11 - - -
01/05:00am - - - - - NNE 13 22 7 12 - - -
01/04:30am - - - - - NE 13 20 7 11 - - -
01/04:00am - - - - - NNE 11 20 6 11 - - -
01/03:30am - - - - - NNE 11 20 6 11 - - -
01/03:00am - - - - - NNE 13 22 7 12 - - -
01/02:30am - - - - - NNE 13 20 7 11 - - -
01/02:00am - - - - - NNE 11 20 6 11 - - -
01/01:30am - - - - - NNE 13 20 7 11 - - -
01/01:00am - - - - - NNE 9 20 5 11 - - -
01/12:30am - - - - - NE 11 20 6 11 - - -
01/12:00am - - - - - NE 9 20 5 11 - - -
 
Date/Time
EDT
Temp
°C
App
Temp
°C
Dew
Point
Rel
Hum
%
Delta-T
°C
Wind Press
QNH
hPa
Press
MSL
hPa
Rain
since 9 am
mm
Dir
 
Spd
km/h
Gust
km/h
Spd
kts
Gust
kts
31/11:30pm - - - - - NE 9 22 5 12 - - -
31/11:00pm - - - - - NE 9 13 5 7 - - -
31/10:30pm - - - - - NE 9 13 5 7 - - -
31/10:00pm - - - - - NNE 13 20 7 11 - - -
31/09:30pm - - - - - NNE 13 19 7 10 - - -
31/09:00pm - - - - - NE 17 28 9 15 - - -
31/08:30pm - - - - - NNE 13 24 7 13 - - -
31/08:00pm - - - - - NNE 13 24 7 13 - - -
31/07:30pm - - - - - NNE 13 24 7 13 - - -
31/07:00pm - - - - - NE 15 30 8 16 - - -
31/06:30pm - - - - - NNE 13 22 7 12 - - -
31/06:00pm - - - - - NNE 11 19 6 10 - - -
31/05:30pm - - - - - NNE 13 20 7 11 - - -
31/05:00pm - - - - - NNE 15 22 8 12 - - -
31/04:30pm - - - - - NNE 17 28 9 15 - - -
31/04:00pm - - - - - N 17 24 9 13 - - -
31/03:30pm - - - - - NNE 15 22 8 12 - - -
31/03:00pm - - - - - N 17 24 9 13 - - -
31/02:30pm - - - - - N 15 24 8 13 - - -
31/02:00pm - - - - - NNE 17 26 9 14 - - -
31/01:30pm - - - - - N 17 26 9 14 - - -
31/01:00pm - - - - - NNE 17 24 9 13 - - -
31/12:30pm - - - - - NNE 17 24 9 13 - - -
31/12:00pm - - - - - NNE 17 22 9 12 - - -
31/11:30am - - - - - NNE 15 26 8 14 - - -
31/11:00am - - - - - NNE 17 24 9 13 - - -
31/10:30am - - - - - N 15 20 8 11 - - -
31/10:00am - - - - - N 11 20 6 11 - - -
31/09:30am - - - - - NNE 15 24 8 13 - - -
31/09:00am - - - - - N 13 20 7 11 - - -
31/08:30am - - - - - N 11 19 6 10 - - -
31/08:00am - - - - - NNW 11 20 6 11 - - -
31/07:30am - - - - - NW 13 20 7 11 - - -
31/07:00am - - - - - NNW 9 15 5 8 - - -
31/06:30am - - - - - N 2 7 1 4 - - -
31/06:00am - - - - - N 6 7 3 4 - - -
31/05:30am - - - - - N 7 13 4 7 - - -
31/05:00am - - - - - N 4 7 2 4 - - -
31/04:30am - - - - - NE 7 9 4 5 - - -
31/04:00am - - - - - NE 9 13 5 7 - - -
31/03:30am - - - - - NE 9 15 5 8 - - -
31/03:00am - - - - - NE 11 15 6 8 - - -
31/02:30am - - - - - E 6 15 3 8 - - -
31/02:00am - - - - - NNE 11 17 6 9 - - -
31/01:30am - - - - - E 9 17 5 9 - - -
31/01:00am - - - - - NNE 11 19 6 10 - - -
31/12:30am - - - - - NE 9 20 5 11 - - -
31/12:00am - - - - - NE 11 19 6 10 - - -
 
Date/Time
EDT
Temp
°C
App
Temp
°C
Dew
Point
Rel
Hum
%
Delta-T
°C
Wind Press
QNH
hPa
Press
MSL
hPa
Rain
since 9 am
mm
Dir
 
Spd
km/h
Gust
km/h
Spd
kts
Gust
kts
30/11:30pm - - - - - E 11 20 6 11 - - -
30/11:00pm - - - - - NE 7 13 4 7 - - -
30/10:30pm - - - - - NE 9 17 5 9 - - -
30/10:00pm - - - - - NE 9 19 5 10 - - -
30/09:30pm - - - - - NE 9 15 5 8 - - -
30/09:00pm - - - - - NE 9 17 5 9 - - -
30/08:30pm - - - - - NE 11 15 6 8 - - -
30/08:00pm - - - - - ENE 11 15 6 8 - - -
30/07:30pm - - - - - NE 7 13 4 7 - - -
30/07:00pm - - - - - ENE 11 13 6 7 - - -
30/06:30pm - - - - - ENE 11 15 6 8 - - -
30/06:00pm - - - - - E 13 15 7 8 - - -
30/05:30pm - - - - - E 11 20 6 11 - - -
30/05:00pm - - - - - ENE 11 15 6 8 - - -
30/04:30pm - - - - - E 11 15 6 8 - - -
30/04:00pm - - - - - E 11 15 6 8 - - -
30/03:30pm - - - - - E 11 17 6 9 - - -
30/03:00pm - - - - - E 11 15 6 8 - - -
30/02:30pm - - - - - E 11 15 6 8 - - -
30/02:00pm - - - - - E 9 15 5 8 - - -
30/01:30pm - - - - - E 11 17 6 9 - - -
30/01:00pm - - - - - E 13 19 7 10 - - -
30/12:30pm - - - - - ENE 13 17 7 9 - - -
30/12:00pm - - - - - E 13 20 7 11 - - -
30/11:30am - - - - - E 13 17 7 9 - - -
30/11:00am - - - - - E 11 17 6 9 - - -
30/10:30am - - - - - E 13 17 7 9 - - -
30/10:00am - - - - - E 11 17 6 9 - - -
30/09:30am - - - - - ESE 11 17 6 9 - - -
30/09:00am - - - - - ESE 11 17 6 9 - - -
30/08:30am - - - - - E 11 13 6 7 - - -
30/08:00am - - - - - E 11 13 6 7 - - -
30/07:30am - - - - - E 11 15 6 8 - - -
30/07:00am - - - - - ESE 9 15 5 8 - - -
30/06:30am - - - - - E 6 7 3 4 - - -
30/06:00am - - - - - ENE 6 7 3 4 - - -
30/05:30am - - - - - E 7 9 4 5 - - -
30/05:00am - - - - - CALM 0 0 0 0 - - -
30/04:30am - - - - - E 6 7 3 4 - - -
30/04:00am - - - - - E 9 13 5 7 - - -
30/03:30am - - - - - ESE 9 15 5 8 - - -
30/03:00am - - - - - E 7 13 4 7 - - -
30/02:30am - - - - - ESE 11 15 6 8 - - -
30/02:00am - - - - - E 9 11 5 6 - - -
30/01:30am - - - - - ESE 7 13 4 7 - - -
30/01:00am - - - - - ESE 13 19 7 10 - - -
30/12:30am - - - - - ESE 11 19 6 10 - - -
30/12:00am - - - - - ESE 17 22 9 12 - - -
 
Date/Time
EDT
Temp
°C
App
Temp
°C
Dew
Point
Rel
Hum
%
Delta-T
°C
Wind Press
QNH
hPa
Press
MSL
hPa
Rain
since 9 am
mm
Dir
 
Spd
km/h
Gust
km/h
Spd
kts
Gust
kts
29/11:30pm - - - - - E 15 22 8 12 - - -
29/11:00pm - - - - - ESE 17 26 9 14 - - -
29/10:30pm - - - - - ESE 17 26 9 14 - - -
29/10:00pm - - - - - ESE 17 28 9 15 - - -
29/09:30pm - - - - - ESE 20 30 11 16 - - -
29/09:00pm - - - - - ESE 19 41 10 22 - - -
29/08:30pm - - - - - ESE 19 35 10 19 - - -
29/08:00pm - - - - - ESE 22 37 12 20 - - -
29/07:30pm - - - - - ESE 24 39 13 21 - - -
29/07:00pm - - - - - ESE 26 44 14 24 - - -

Other Formats:

Comma delimited format used in spreadsheet applications
http://www.bom.gov.au/fwo/IDN60801/IDN60801.95995.axf

JavaScript Object Notation format (JSON) in row-major order
http://www.bom.gov.au/fwo/IDN60801/IDN60801.95995.json